createdAt,value
2022-09-23T00:01:14.375Z,13.91
2022-09-23T00:03:42.954Z,13.71
2022-09-23T00:06:14.900Z,13.96
2022-09-23T00:08:41.868Z,13.99
2022-09-23T00:11:14.933Z,13.92
2022-09-23T00:13:43.997Z,13.86
2022-09-23T00:16:13.670Z,14.06
2022-09-23T00:18:40.892Z,13.65
2022-09-23T00:21:10.125Z,13.64
2022-09-23T00:23:38.244Z,13.73
2022-09-23T00:26:06.964Z,13.59
2022-09-23T00:28:34.359Z,13.54
2022-09-23T00:31:22.167Z,13.59
2022-09-23T00:33:56.743Z,13.50
2022-09-23T00:36:24.781Z,12.87
2022-09-23T00:38:51.420Z,12.68
2022-09-23T00:41:18.665Z,12.75
2022-09-23T00:43:54.892Z,12.74
2022-09-23T00:46:31.153Z,12.82
2022-09-23T00:49:12.838Z,12.53
2022-09-23T00:51:48.090Z,12.40
2022-09-23T00:54:17.211Z,12.50
2022-09-23T00:56:44.570Z,12.38
2022-09-23T00:59:11.385Z,12.35
2022-09-23T01:01:39.152Z,11.80
2022-09-23T01:04:07.672Z,11.83
2022-09-23T01:06:34.254Z,11.87
2022-09-23T01:09:01.242Z,11.91
2022-09-23T01:11:49.546Z,12.17
2022-09-23T01:14:45.911Z,12.39
2022-09-23T01:17:18.506Z,12.18
2022-09-23T01:20:26.700Z,12.42
2022-09-23T01:23:27.058Z,12.30
2022-09-23T01:26:06.029Z,12.20
2022-09-23T01:28:35.707Z,12.20
2022-09-23T01:31:23.604Z,11.86
2022-09-23T01:34:09.755Z,11.84
2022-09-23T01:36:44.132Z,11.58
2022-09-23T01:39:30.899Z,11.67
2022-09-23T01:42:07.211Z,11.59
2022-09-23T01:44:43.267Z,11.64
2022-09-23T01:47:18.619Z,11.75
2022-09-23T01:49:57.427Z,11.55
2022-09-23T01:52:35.920Z,11.58
2022-09-23T01:55:13.323Z,11.70
2022-09-23T01:58:15.905Z,11.71
2022-09-23T02:00:57.051Z,11.76
2022-09-23T02:03:34.024Z,11.47
2022-09-23T02:06:29.947Z,11.70
2022-09-23T02:09:03.515Z,11.16
2022-09-23T02:11:36.360Z,11.53
2022-09-23T02:14:17.440Z,11.62
2022-09-23T02:16:51.402Z,11.46
2022-09-23T02:19:33.160Z,11.30
2022-09-23T02:22:18.848Z,11.43
2022-09-23T02:24:45.736Z,11.30
2022-09-23T02:27:30.394Z,11.40
2022-09-23T02:30:21.583Z,11.44
2022-09-23T02:33:21.140Z,11.47
2022-09-23T02:35:53.722Z,11.29
2022-09-23T02:38:26.188Z,11.17
2022-09-23T02:41:04.761Z,10.93
2022-09-23T02:43:39.218Z,10.67
2022-09-23T02:46:07.459Z,10.56
2022-09-23T02:48:45.209Z,10.99
2022-09-23T02:51:13.567Z,11.06
2022-09-23T02:53:40.367Z,11.00
2022-09-23T02:56:21.233Z,11.26
2022-09-23T02:58:54.375Z,11.30
2022-09-23T03:01:59.738Z,11.29
2022-09-23T03:04:50.447Z,11.26
2022-09-23T03:08:02.381Z,11.36
2022-09-23T03:11:10.953Z,11.22
2022-09-23T03:13:59.034Z,11.16
2022-09-23T03:16:44.143Z,11.05
2022-09-23T03:19:35.025Z,10.90
2022-09-23T03:22:13.054Z,10.93
2022-09-23T03:24:42.936Z,10.89
2022-09-23T03:27:14.459Z,10.86
2022-09-23T03:29:48.025Z,10.89
2022-09-23T03:32:20.076Z,10.47
2022-09-23T03:34:50.809Z,10.70
2022-09-23T03:37:39.423Z,10.73
2022-09-23T03:40:18.022Z,10.38
2022-09-23T03:42:45.069Z,10.64
2022-09-23T03:45:20.248Z,10.55
2022-09-23T03:47:47.120Z,10.37
2022-09-23T03:50:17.298Z,10.68
2022-09-23T03:52:45.092Z,10.85
2022-09-23T03:55:11.837Z,10.51
2022-09-23T03:57:38.570Z,10.58
2022-09-23T04:00:09.595Z,10.67
2022-09-23T04:02:39.456Z,10.66
2022-09-23T04:05:07.947Z,10.59
2022-09-23T04:07:34.907Z,10.63
2022-09-23T04:10:01.620Z,10.34
2022-09-23T04:12:28.327Z,10.26
2022-09-23T04:14:57.301Z,10.41
2022-09-23T04:17:23.982Z,10.26
2022-09-23T04:19:53.363Z,10.51
2022-09-23T04:22:20.445Z,9.88
2022-09-23T04:24:47.096Z,10.45
2022-09-23T04:27:13.753Z,10.44
2022-09-23T04:29:40.400Z,10.40
2022-09-23T04:32:07.156Z,10.22
2022-09-23T04:34:33.722Z,10.19
2022-09-23T04:37:00.437Z,10.42
2022-09-23T04:39:27.133Z,10.28
2022-09-23T04:41:53.782Z,10.21
2022-09-23T04:44:21.349Z,10.28
2022-09-23T04:46:48.387Z,10.88
2022-09-23T04:49:15.928Z,10.55
2022-09-23T04:51:45.666Z,10.44
2022-09-23T04:54:14.567Z,10.37
2022-09-23T04:56:42.606Z,10.57
2022-09-23T04:59:09.497Z,10.45
2022-09-23T05:01:36.580Z,10.54
2022-09-23T05:04:07.131Z,10.47
2022-09-23T05:06:40.088Z,10.56
2022-09-23T05:09:08.426Z,10.36
2022-09-23T05:11:35.358Z,10.24
2022-09-23T05:14:02.168Z,10.40
2022-09-23T05:16:29.472Z,10.31
2022-09-23T05:18:56.311Z,10.26
2022-09-23T05:21:25.021Z,10.26
2022-09-23T05:23:55.172Z,10.20
2022-09-23T05:26:27.539Z,10.13
2022-09-23T05:28:54.548Z,10.20
2022-09-23T05:31:24.074Z,10.00
2022-09-23T05:33:53.702Z,10.42
2022-09-23T05:36:21.712Z,10.39
2022-09-23T05:38:50.026Z,10.55
2022-09-23T05:41:21.206Z,10.53
2022-09-23T05:43:47.852Z,10.64
2022-09-23T05:46:19.828Z,10.41
2022-09-23T05:48:47.615Z,10.45
2022-09-23T05:51:20.279Z,10.63
2022-09-23T05:53:47.967Z,10.69
2022-09-23T05:56:15.460Z,11.10
2022-09-23T05:58:42.396Z,10.85
2022-09-23T06:01:12.393Z,10.70
2022-09-23T06:03:39.594Z,11.09
2022-09-23T06:06:14.549Z,11.25
2022-09-23T06:08:42.161Z,11.42
2022-09-23T06:11:09.121Z,11.20
2022-09-23T06:13:39.707Z,11.47
2022-09-23T06:16:14.728Z,11.50
2022-09-23T06:18:44.023Z,11.50
2022-09-23T06:21:15.058Z,11.69
2022-09-23T06:23:42.936Z,11.63
2022-09-23T06:26:11.815Z,11.88
2022-09-23T06:28:40.837Z,12.04
2022-09-23T06:31:15.570Z,11.97
2022-09-23T06:33:43.600Z,12.11
2022-09-23T06:36:32.071Z,12.27
2022-09-23T06:39:02.369Z,12.34
2022-09-23T06:41:29.539Z,12.36
2022-09-23T06:43:58.008Z,12.61
2022-09-23T06:46:25.043Z,12.70
2022-09-23T06:48:51.703Z,12.83
2022-09-23T06:51:21.775Z,13.07
2022-09-23T06:53:49.468Z,13.35
2022-09-23T06:56:17.784Z,13.57
2022-09-23T06:58:44.464Z,13.76
2022-09-23T07:01:16.140Z,14.04
2022-09-23T07:03:43.482Z,14.23
2022-09-23T07:06:10.828Z,14.35
2022-09-23T07:08:37.841Z,14.53
2022-09-23T07:11:07.089Z,14.66
2022-09-23T07:13:34.720Z,14.76
2022-09-23T07:16:02.343Z,15.09
2022-09-23T07:18:37.337Z,15.06
2022-09-23T07:21:17.124Z,15.28
2022-09-23T07:23:52.015Z,15.39
2022-09-23T07:26:20.157Z,15.39
2022-09-23T07:28:46.775Z,15.61
2022-09-23T07:31:29.726Z,15.20
2022-09-23T07:34:02.272Z,15.70
2022-09-23T07:36:32.669Z,16.09
2022-09-23T07:39:03.675Z,16.03
2022-09-23T07:41:32.989Z,16.18
2022-09-23T07:44:00.662Z,16.25
2022-09-23T07:46:32.120Z,16.19
2022-09-23T07:48:59.192Z,15.86
2022-09-23T07:51:34.731Z,16.11
2022-09-23T07:54:02.444Z,16.06
2022-09-23T07:56:30.305Z,16.55
2022-09-23T07:59:00.466Z,16.73
2022-09-23T08:01:29.500Z,17.06
2022-09-23T08:04:12.579Z,16.98
2022-09-23T08:06:44.498Z,16.74
2022-09-23T08:09:12.038Z,16.85
2022-09-23T08:11:42.161Z,17.30
2022-09-23T08:14:14.097Z,17.18
2022-09-23T08:16:42.094Z,17.29
2022-09-23T08:19:09.246Z,17.09
2022-09-23T08:21:39.424Z,17.23
2022-09-23T08:24:13.407Z,17.45
2022-09-23T08:26:40.077Z,17.28
2022-09-23T09:00:28.889Z,18.49
2022-09-23T09:02:56.171Z,17.74
2022-09-23T09:05:27.576Z,18.40
2022-09-23T09:07:58.658Z,18.42
2022-09-23T09:10:33.426Z,18.52
2022-09-23T09:13:07.492Z,18.60
2022-09-23T09:15:43.532Z,18.56
2022-09-23T09:18:24.218Z,18.74
2022-09-23T09:21:02.755Z,18.82
2022-09-23T09:24:02.457Z,19.08
2022-09-23T09:26:33.711Z,19.02
2022-09-23T09:32:36.001Z,19.45
2022-09-23T09:35:17.248Z,19.45
2022-09-23T09:37:47.422Z,19.42
2022-09-23T09:40:21.185Z,19.79
2022-09-23T09:42:49.911Z,19.76
2022-09-23T09:45:35.075Z,19.96
2022-09-23T09:48:28.051Z,19.35
2022-09-23T09:50:56.046Z,19.36
2022-09-23T09:53:28.377Z,19.23
2022-09-23T09:56:04.973Z,19.58
2022-09-23T09:58:49.059Z,20.29
2022-09-23T10:01:28.799Z,20.52
2022-09-23T10:03:59.541Z,20.20
2022-09-23T10:06:34.705Z,20.67
2022-09-23T10:09:01.796Z,20.78
2022-09-23T10:11:29.559Z,20.91
2022-09-23T10:14:10.880Z,20.80
2022-09-23T10:16:37.692Z,20.42
2022-09-23T10:19:14.080Z,20.25
2022-09-23T10:21:42.283Z,20.43
2022-09-23T10:24:22.699Z,21.05
2022-09-23T10:27:14.039Z,20.97
2022-09-23T10:29:50.253Z,20.92
2022-09-23T10:32:22.866Z,21.19
2022-09-23T10:34:55.300Z,21.60
2022-09-23T10:37:32.044Z,21.09
2022-09-23T10:40:18.968Z,21.88
2022-09-23T10:43:10.221Z,21.91
2022-09-23T10:45:59.566Z,21.97
2022-09-23T10:48:38.528Z,22.69
2022-09-23T10:51:14.485Z,21.58
2022-09-23T10:54:10.605Z,21.70
2022-09-23T10:56:43.068Z,22.48
2022-09-23T10:59:27.179Z,22.19
2022-09-23T11:02:10.022Z,22.37
2022-09-23T11:05:00.869Z,21.87
2022-09-23T11:07:53.472Z,20.94
2022-09-23T11:10:46.033Z,22.00
2022-09-23T11:14:04.182Z,21.85
2022-09-23T11:16:58.184Z,21.97
2022-09-23T11:19:45.566Z,23.44
2022-09-23T11:22:23.796Z,25.13
2022-09-23T11:29:04.439Z,24.57
2022-09-23T11:40:16.675Z,23.16
2022-09-23T11:47:26.289Z,24.09
2022-09-23T11:50:25.877Z,23.49
2022-09-23T11:53:07.783Z,24.17
2022-09-23T11:55:54.062Z,23.70
2022-09-23T11:59:00.189Z,24.01
2022-09-23T12:03:07.610Z,24.13
2022-09-23T12:17:58.600Z,23.73
2022-09-23T12:44:45.541Z,23.15
2022-09-23T12:47:15.136Z,22.88
2022-09-23T12:49:43.688Z,23.39
2022-09-23T12:52:16.562Z,23.55
2022-09-23T12:54:48.767Z,23.56
2022-09-23T12:57:21.650Z,23.76
2022-09-23T12:59:51.290Z,23.30
2022-09-23T13:02:40.281Z,23.16
2022-09-23T13:05:34.958Z,22.11
2022-09-23T13:08:12.713Z,22.66
2022-09-23T13:10:49.811Z,22.50
2022-09-23T13:13:29.793Z,22.99
2022-09-23T13:16:13.980Z,22.92
2022-09-23T13:18:52.688Z,23.21
2022-09-23T13:21:45.719Z,23.36
2022-09-23T13:24:25.082Z,23.12
2022-09-23T13:27:10.478Z,22.19
2022-09-23T13:29:42.571Z,21.75
2022-09-23T13:32:19.183Z,22.03
2022-09-23T13:35:01.982Z,22.14
2022-09-23T13:37:47.564Z,21.68
2022-09-23T13:40:26.697Z,21.54
2022-09-23T13:43:06.266Z,21.97
2022-09-23T13:45:41.478Z,22.06
2022-09-23T13:48:15.197Z,21.95
2022-09-23T13:50:50.949Z,21.82
2022-09-23T13:53:26.042Z,22.11
2022-09-23T13:56:01.562Z,21.80
2022-09-23T13:58:30.241Z,22.03
2022-09-23T14:00:57.111Z,22.53
2022-09-23T14:03:37.102Z,22.10
2022-09-23T14:06:12.886Z,21.77
2022-09-23T14:08:44.054Z,21.67
2022-09-23T14:11:23.187Z,22.05
2022-09-23T14:13:54.296Z,22.33
2022-09-23T14:16:25.196Z,22.16
2022-09-23T14:18:56.357Z,22.27
2022-09-23T14:21:35.316Z,22.11
2022-09-23T14:24:18.524Z,22.54
2022-09-23T14:27:07.181Z,22.68
2022-09-23T14:29:36.902Z,22.60
2022-09-23T14:32:06.718Z,22.54
2022-09-23T14:34:39.470Z,22.69
2022-09-23T14:37:36.963Z,22.34
2022-09-23T14:40:08.933Z,22.44
2022-09-23T14:42:41.199Z,22.29
2022-09-23T14:45:14.315Z,22.51
2022-09-23T14:47:46.058Z,22.44
2022-09-23T14:50:39.597Z,22.41
2022-09-23T14:53:42.947Z,22.47
2022-09-23T14:56:21.224Z,22.45
2022-09-23T14:58:58.875Z,22.14
2022-09-23T15:01:32.274Z,22.05
2022-09-23T15:04:11.282Z,22.05
2022-09-23T15:06:40.603Z,22.10
2022-09-23T15:09:07.519Z,22.15
2022-09-23T15:11:36.082Z,22.13
2022-09-23T15:14:32.975Z,22.05
2022-09-23T15:16:53.303Z,22.10
2022-09-23T15:19:22.450Z,22.18
2022-09-23T15:21:53.251Z,22.34
2022-09-23T15:24:53.375Z,22.15
2022-09-23T15:27:26.281Z,21.88
2022-09-23T15:29:53.070Z,21.79
2022-09-23T15:32:21.241Z,21.86
2022-09-23T15:34:51.358Z,21.77
2022-09-23T15:37:18.239Z,21.64
2022-09-23T15:39:44.874Z,21.49
2022-09-23T15:42:11.852Z,21.35
2022-09-23T15:44:38.561Z,21.54
2022-09-23T15:47:05.488Z,21.48
2022-09-23T15:49:36.304Z,21.55
2022-09-23T15:52:04.616Z,21.43
2022-09-23T15:54:32.491Z,21.36
2022-09-23T15:57:01.046Z,21.23
2022-09-23T15:59:28.790Z,21.03
2022-09-23T16:01:57.085Z,21.14
2022-09-23T16:04:25.691Z,21.04
2022-09-23T16:06:53.395Z,20.94
2022-09-23T16:09:19.972Z,20.81
2022-09-23T16:11:49.338Z,20.78
2022-09-23T16:14:17.787Z,20.47
2022-09-23T16:16:47.741Z,20.45
2022-09-23T16:19:16.189Z,20.31
2022-09-23T16:21:43.279Z,20.18
2022-09-23T16:24:17.076Z,20.33
2022-09-23T16:26:46.625Z,20.02
2022-09-23T16:29:13.733Z,19.90
2022-09-23T16:31:40.526Z,19.86
2022-09-23T16:34:07.382Z,19.66
2022-09-23T16:36:43.013Z,19.85
2022-09-23T16:39:12.656Z,19.61
2022-09-23T16:41:40.187Z,19.37
2022-09-23T16:44:10.568Z,19.50
2022-09-23T16:46:37.318Z,19.33
2022-09-23T16:49:04.321Z,19.14
2022-09-23T16:51:38.311Z,19.12
2022-09-23T16:54:10.120Z,19.01
2022-09-23T16:56:40.428Z,18.68
2022-09-23T16:59:07.217Z,18.51
2022-09-23T17:01:52.850Z,18.47
2022-09-23T17:04:19.659Z,18.57
2022-09-23T17:06:50.225Z,18.68
2022-09-23T17:09:18.881Z,18.52
2022-09-23T17:11:48.253Z,18.49
2022-09-23T17:14:16.015Z,18.25
2022-09-23T17:16:43.073Z,18.32
2022-09-23T17:19:11.760Z,18.06
2022-09-23T17:21:39.046Z,18.00
2022-09-23T17:24:06.573Z,18.29
2022-09-23T17:26:33.066Z,18.51
2022-09-23T17:29:00.971Z,18.20
2022-09-23T17:31:28.321Z,18.12
2022-09-23T17:33:54.996Z,18.09
2022-09-23T17:36:22.008Z,18.36
2022-09-23T17:38:53.636Z,18.13
2022-09-23T17:41:23.156Z,17.69
2022-09-23T17:43:57.197Z,17.96
2022-09-23T17:46:24.243Z,17.87
2022-09-23T17:48:55.256Z,17.97
2022-09-23T17:51:22.284Z,17.35
2022-09-23T17:53:49.641Z,17.55
2022-09-23T17:56:25.087Z,17.76
2022-09-23T17:58:53.377Z,17.59
2022-09-23T18:01:30.321Z,17.61
2022-09-23T18:05:06.097Z,17.89
2022-09-23T18:07:32.863Z,17.54
2022-09-23T18:10:00.926Z,17.67
2022-09-23T18:12:28.005Z,17.51
2022-09-23T18:14:54.613Z,17.23
2022-09-23T18:17:21.266Z,17.55
2022-09-23T18:19:49.293Z,17.43
2022-09-23T18:22:15.978Z,17.25
2022-09-23T18:24:42.711Z,17.44
2022-09-23T18:27:09.649Z,17.28
2022-09-23T18:29:36.321Z,17.35
2022-09-23T18:32:04.047Z,17.18
2022-09-23T18:34:30.750Z,17.24
2022-09-23T18:36:57.558Z,17.33
2022-09-23T18:39:24.171Z,17.26
2022-09-23T18:41:51.087Z,17.26
2022-09-23T18:44:19.072Z,17.21
2022-09-23T18:46:45.701Z,17.34
2022-09-23T18:49:30.949Z,17.33
2022-09-23T18:51:58.467Z,17.40
2022-09-23T18:54:29.106Z,17.48
2022-09-23T18:56:56.650Z,17.19
2022-09-23T18:59:25.969Z,17.31
2022-09-23T19:01:55.548Z,17.16
2022-09-23T19:04:24.375Z,17.18
2022-09-23T19:06:51.151Z,17.16
2022-09-23T19:09:18.451Z,16.91
2022-09-23T19:11:45.358Z,16.93
2022-09-23T19:14:12.741Z,17.02
2022-09-23T19:16:40.410Z,17.19
2022-09-23T19:19:07.614Z,16.86
2022-09-23T19:21:34.980Z,16.85
2022-09-23T19:24:05.645Z,17.54
2022-09-23T19:26:40.335Z,17.29
2022-09-23T19:29:12.608Z,17.18
2022-09-23T19:31:42.708Z,17.08
2022-09-23T19:34:13.914Z,17.06
2022-09-23T19:36:43.250Z,16.97
2022-09-23T19:39:19.040Z,17.31
2022-09-23T19:41:46.400Z,16.92
2022-09-23T19:44:13.397Z,17.09
2022-09-23T19:46:42.822Z,17.05
2022-09-23T19:49:11.178Z,17.01
2022-09-23T19:51:38.831Z,17.00
2022-09-23T19:54:07.309Z,16.95
2022-09-23T19:56:34.751Z,16.85
2022-09-23T19:59:03.050Z,16.95
2022-09-23T20:01:31.975Z,16.95
2022-09-23T20:03:58.959Z,16.83
2022-09-23T20:06:29.220Z,16.99
2022-09-23T20:08:57.525Z,16.85
2022-09-23T20:11:28.499Z,16.97
2022-09-23T20:14:01.104Z,17.14
2022-09-23T20:16:32.321Z,17.14
2022-09-23T20:19:00.880Z,17.03
2022-09-23T20:21:29.268Z,17.07
2022-09-23T20:23:57.180Z,16.95
2022-09-23T20:26:59.727Z,17.03
2022-09-23T20:29:26.544Z,17.04
2022-09-23T20:31:53.274Z,17.05
2022-09-23T20:34:22.376Z,17.01
2022-09-23T20:36:48.971Z,16.86
2022-09-23T20:39:15.624Z,16.78
2022-09-23T20:41:42.189Z,16.96
2022-09-23T20:44:14.323Z,16.84
2022-09-23T20:46:48.542Z,16.71
2022-09-23T20:49:18.719Z,16.60
2022-09-23T20:51:47.668Z,16.76
2022-09-23T20:54:14.257Z,16.62
2022-09-23T20:56:40.974Z,16.68
2022-09-23T20:59:09.240Z,16.89
2022-09-23T21:01:37.025Z,16.98
2022-09-23T21:04:05.872Z,16.88
2022-09-23T21:06:34.987Z,16.85
2022-09-23T21:09:01.796Z,17.10
2022-09-23T21:11:29.367Z,17.18
2022-09-23T21:13:56.576Z,17.17
2022-09-23T21:16:23.997Z,16.70
2022-09-23T21:18:51.712Z,16.73
2022-09-23T21:21:19.738Z,16.73
2022-09-23T21:23:46.965Z,16.70
2022-09-23T21:26:19.393Z,16.71
2022-09-23T21:28:48.560Z,16.59
2022-09-23T21:31:24.124Z,16.70
2022-09-23T21:34:11.361Z,16.75
2022-09-23T21:36:41.503Z,16.51
2022-09-23T21:39:10.377Z,16.54
2022-09-23T21:41:37.870Z,16.65
2022-09-23T21:44:04.866Z,16.81
2022-09-23T21:46:35.611Z,16.51
2022-09-23T21:49:04.034Z,16.58
2022-09-23T21:51:40.366Z,16.62
2022-09-23T21:54:12.171Z,16.47
2022-09-23T21:56:38.800Z,16.45
2022-09-23T21:59:07.614Z,16.45
2022-09-23T22:01:37.708Z,16.61
2022-09-23T22:04:17.117Z,16.59
2022-09-23T22:06:45.056Z,16.44
2022-09-23T22:09:18.099Z,16.53
2022-09-23T22:12:04.126Z,16.58
2022-09-23T22:14:31.397Z,16.45
2022-09-23T22:17:00.673Z,16.70
2022-09-23T22:19:32.897Z,16.70
2022-09-23T22:22:00.160Z,16.47
2022-09-23T22:24:27.121Z,16.50
2022-09-23T22:26:53.994Z,16.50
2022-09-23T22:29:39.266Z,16.44
2022-09-23T22:32:29.609Z,16.46
2022-09-23T22:34:56.784Z,16.39
2022-09-23T22:37:34.309Z,16.57
2022-09-23T22:40:02.582Z,16.39
2022-09-23T22:42:29.236Z,16.26
2022-09-23T22:44:55.869Z,16.23
2022-09-23T22:47:22.980Z,16.33
2022-09-23T22:49:55.173Z,16.52
2022-09-23T22:52:24.570Z,16.43
2022-09-23T22:54:53.822Z,16.32
2022-09-23T22:57:21.418Z,16.63
2022-09-23T22:59:48.475Z,16.72
2022-09-23T23:02:17.883Z,16.37
2022-09-23T23:04:47.052Z,16.44
2022-09-23T23:07:15.670Z,16.07
2022-09-23T23:09:42.325Z,15.83
2022-09-23T23:12:11.178Z,15.69
2022-09-23T23:14:38.457Z,15.71
2022-09-23T23:17:07.536Z,15.94
2022-09-23T23:19:35.316Z,16.18
2022-09-23T23:22:02.150Z,16.05
2022-09-23T23:24:29.012Z,16.20
2022-09-23T23:26:55.793Z,16.42
2022-09-23T23:29:25.265Z,16.47
2022-09-23T23:31:51.929Z,16.34
2022-09-23T23:34:22.290Z,16.36
2022-09-23T23:36:54.985Z,16.43
2022-09-23T23:39:23.759Z,16.45
2022-09-23T23:41:57.843Z,16.63
2022-09-23T23:44:26.063Z,16.71
2022-09-23T23:46:54.758Z,16.66
2022-09-23T23:49:21.937Z,16.58
2022-09-23T23:51:49.024Z,16.62
2022-09-23T23:54:15.721Z,16.48
2022-09-23T23:56:42.692Z,16.65
2022-09-23T23:59:09.589Z,16.55
